ベロオリゾンテ の空港の天気 - METARとTAF

タンクレド・ネヴェス国際空港 ( SBCF / CNF ) - ブラジル ミナスジェライス州ベロオリゾンテ
飛行場実況気象(Metar)
観測時間10/24 00:00 BRT (10/24 03:00 UTC)
風向・風速北東 4m/s
視程10km以上
天気現象
なし
気温22℃
湿度73%
気圧1014hPa
METARSBCF 240300Z 05007KT CAVOK 22/17 Q1014
過去の天気等 Google飛行場航空写真 Wunderground天気予報

過去48時間のMETAR

飛行場予報(TAF)
発表時間: 10/23 19:00 BRT (10/23 22:00 UTC)
予報対象時間: 23日21時 BRT ~ 24日21時 BRT
風向・風速東 4m/s
視程10km以上
なし
24日6時 BRT ~ 24日8時 BRT に徐々に
風向・風速北北西 4m/s
全天の8割程度の雲 雲底高度 610m
24日12時 BRT ~ 24日14時 BRT に徐々に
風向・風速北北西 6m/s
天気現象周辺でしゅう雨
全天の8割程度の雲 雲底高度 910m
少しの塔状積雲 雲底高度 1220m
24日15時 BRT ~ 24日19時 BRT に一時的に
天気現象雷雨
全天の8割程度の雲 雲底高度 910m
少しの積乱雲 雲底高度 1220m
TAF SBCF 232200Z 2400/2424 09007KT CAVOK TN18/2409Z TX27/2417Z
BECMG 2409/2411 33008KT BKN020
BECMG 2415/2417 34012KT VCSH BKN030 FEW040TCU
TEMPO 2418/2422 TSRA BKN030 FEW040CB RMK PGH